createdAt,value
2022-08-11T00:01:05.130Z,100.00
2022-08-11T00:03:43.718Z,100.00
2022-08-11T00:06:11.194Z,100.00
2022-08-11T00:08:38.850Z,100.00
2022-08-11T00:11:07.143Z,100.00
2022-08-11T00:13:35.218Z,100.00
2022-08-11T00:16:02.223Z,100.00
2022-08-11T00:18:29.435Z,100.00
2022-08-11T00:20:58.348Z,100.00
2022-08-11T00:23:25.057Z,100.00
2022-08-11T00:25:53.342Z,100.00
2022-08-11T00:28:27.005Z,100.00
2022-08-11T00:30:54.334Z,100.00
2022-08-11T00:33:22.515Z,100.00
2022-08-11T00:36:09.815Z,100.00
2022-08-11T00:38:37.843Z,100.00
2022-08-11T00:41:19.022Z,100.00
2022-08-11T00:43:59.536Z,100.00
2022-08-11T00:46:34.351Z,100.00
2022-08-11T00:49:08.797Z,100.00
2022-08-11T00:52:02.082Z,100.00
2022-08-11T00:54:54.733Z,100.00
2022-08-11T00:57:37.955Z,100.00
2022-08-11T01:00:11.350Z,100.00
2022-08-11T01:02:52.510Z,100.00
2022-08-11T01:05:28.183Z,100.00
2022-08-11T01:08:13.362Z,100.00
2022-08-11T01:10:46.788Z,100.00
2022-08-11T01:13:18.718Z,100.00
2022-08-11T01:16:02.669Z,100.00
2022-08-11T01:18:53.308Z,100.00
2022-08-11T01:21:37.295Z,100.00
2022-08-11T01:24:21.245Z,100.00
2022-08-11T01:27:18.858Z,100.00
2022-08-11T01:30:04.820Z,100.00
2022-08-11T01:32:45.983Z,100.00
2022-08-11T01:35:27.699Z,100.00
2022-08-11T01:38:08.672Z,100.00
2022-08-11T01:40:48.131Z,100.00
2022-08-11T01:43:24.933Z,100.00
2022-08-11T01:45:55.318Z,100.00
2022-08-11T01:48:29.239Z,100.00
2022-08-11T01:51:08.334Z,100.00
2022-08-11T01:53:40.073Z,100.00
2022-08-11T01:56:14.099Z,100.00
2022-08-11T01:58:44.470Z,100.00
2022-08-11T02:01:16.458Z,100.00
2022-08-11T02:03:47.786Z,100.00
2022-08-11T02:06:21.417Z,100.00
2022-08-11T02:08:54.487Z,100.00
2022-08-11T02:11:24.363Z,100.00
2022-08-11T02:13:56.095Z,100.00
2022-08-11T02:16:28.743Z,100.00
2022-08-11T02:18:55.587Z,100.00
2022-08-11T02:21:27.379Z,100.00
2022-08-11T02:24:05.070Z,100.00
2022-08-11T02:26:35.666Z,100.00
2022-08-11T02:29:05.392Z,100.00
2022-08-11T02:32:24.670Z,100.00
2022-08-11T02:34:32.436Z,100.00
2022-08-11T02:37:03.346Z,100.00
2022-08-11T02:39:35.702Z,100.00
2022-08-11T02:42:07.329Z,100.00
2022-08-11T02:45:03.200Z,100.00
2022-08-11T02:47:35.572Z,100.00
2022-08-11T02:50:07.245Z,100.00
2022-08-11T02:52:41.230Z,100.00
2022-08-11T02:55:56.285Z,100.00
2022-08-11T02:58:11.700Z,100.00
2022-08-11T03:00:46.443Z,100.00
2022-08-11T03:03:18.980Z,100.00
2022-08-11T03:05:53.647Z,100.00
2022-08-11T03:08:46.986Z,100.00
2022-08-11T03:11:17.587Z,100.00
2022-08-11T03:13:47.952Z,100.00
2022-08-11T03:16:18.874Z,100.00
2022-08-11T03:18:49.151Z,100.00
2022-08-11T03:21:20.779Z,100.00
2022-08-11T03:23:50.332Z,100.00
2022-08-11T03:26:24.139Z,100.00
2022-08-11T03:28:53.328Z,100.00
2022-08-11T03:31:23.481Z,100.00
2022-08-11T03:33:51.751Z,100.00
2022-08-11T03:36:25.495Z,100.00
2022-08-11T03:38:59.951Z,100.00
2022-08-11T03:42:01.247Z,100.00
2022-08-11T03:44:25.178Z,100.00
2022-08-11T03:46:59.277Z,100.00
2022-08-11T03:49:31.039Z,100.00
2022-08-11T03:52:07.259Z,100.00
2022-08-11T03:54:39.755Z,100.00
2022-08-11T03:57:44.994Z,100.00
2022-08-11T04:00:18.511Z,100.00
2022-08-11T04:03:07.334Z,100.00
2022-08-11T04:05:52.548Z,100.00
2022-08-11T04:08:34.216Z,100.00
2022-08-11T04:11:19.797Z,100.00
2022-08-11T04:14:03.812Z,100.00
2022-08-11T04:16:41.567Z,100.00
2022-08-11T04:19:32.114Z,100.00
2022-08-11T04:22:12.896Z,100.00
2022-08-11T04:24:52.671Z,100.00
2022-08-11T04:27:42.211Z,100.00
2022-08-11T04:30:12.005Z,100.00
2022-08-11T04:33:00.065Z,100.00
2022-08-11T04:35:34.608Z,100.00
2022-08-11T04:38:14.166Z,100.00
2022-08-11T04:40:58.124Z,100.00
2022-08-11T04:44:02.645Z,100.00
2022-08-11T04:46:43.727Z,100.00
2022-08-11T04:49:27.501Z,100.00
2022-08-11T04:52:10.020Z,100.00
2022-08-11T04:54:48.227Z,100.00
2022-08-11T04:57:19.687Z,100.00
2022-08-11T05:00:00.181Z,100.00
2022-08-11T05:02:46.015Z,100.00
2022-08-11T05:05:19.164Z,100.00
2022-08-11T05:08:09.339Z,100.00
2022-08-11T05:10:46.606Z,100.00
2022-08-11T05:13:22.298Z,100.00
2022-08-11T05:15:51.720Z,100.00
2022-08-11T05:18:21.300Z,100.00
2022-08-11T05:20:50.077Z,100.00
2022-08-11T05:23:20.187Z,100.00
2022-08-11T05:26:45.123Z,100.00
2022-08-11T05:28:35.385Z,100.00
2022-08-11T05:31:05.689Z,100.00
2022-08-11T05:33:34.386Z,100.00
2022-08-11T05:36:05.907Z,100.00
2022-08-11T05:38:36.681Z,100.00
2022-08-11T05:41:03.855Z,100.00
2022-08-11T05:43:30.250Z,100.00
2022-08-11T05:46:03.362Z,100.00
2022-08-11T05:48:33.001Z,100.00
2022-08-11T05:51:00.700Z,100.00
2022-08-11T05:53:46.170Z,100.00
2022-08-11T05:56:13.285Z,100.00
2022-08-11T05:58:42.739Z,100.00
2022-08-11T06:01:10.370Z,100.00
2022-08-11T06:03:37.470Z,100.00
2022-08-11T06:06:08.609Z,100.00
2022-08-11T06:08:35.174Z,100.00
2022-08-11T06:11:04.940Z,100.00
2022-08-11T06:13:31.516Z,100.00
2022-08-11T06:15:59.119Z,100.00
2022-08-11T06:18:28.097Z,100.00
2022-08-11T06:20:55.652Z,100.00
2022-08-11T06:23:22.640Z,100.00
2022-08-11T06:25:50.187Z,100.00
2022-08-11T06:28:20.697Z,100.00
2022-08-11T06:30:47.635Z,100.00
2022-08-11T06:33:15.063Z,100.00
2022-08-11T06:35:51.731Z,100.00
2022-08-11T06:38:25.778Z,100.00
2022-08-11T06:40:54.345Z,100.00
2022-08-11T06:43:24.123Z,100.00
2022-08-11T06:45:53.031Z,100.00
2022-08-11T06:48:20.863Z,100.00
2022-08-11T06:50:48.882Z,100.00
2022-08-11T06:53:17.377Z,100.00
2022-08-11T06:55:56.763Z,100.00
2022-08-11T06:58:28.181Z,100.00
2022-08-11T07:00:56.693Z,100.00
2022-08-11T07:03:23.331Z,100.00
2022-08-11T07:05:52.198Z,100.00
2022-08-11T07:08:54.519Z,100.00
2022-08-11T07:11:32.840Z,100.00
2022-08-11T07:14:01.998Z,100.00
2022-08-11T07:16:29.454Z,100.00
2022-08-11T07:18:57.462Z,100.00
2022-08-11T07:21:59.965Z,100.00
2022-08-11T07:24:14.909Z,100.00
2022-08-11T07:26:42.927Z,100.00
2022-08-11T07:29:12.207Z,100.00
2022-08-11T07:31:41.354Z,100.00
2022-08-11T07:34:14.626Z,100.00
2022-08-11T07:36:46.347Z,100.00
2022-08-11T07:39:16.569Z,100.00
2022-08-11T07:41:43.098Z,100.00
2022-08-11T07:44:11.274Z,100.00
2022-08-11T07:46:39.610Z,100.00
2022-08-11T07:49:08.206Z,100.00
2022-08-11T07:51:34.733Z,100.00
2022-08-11T07:54:03.523Z,100.00
2022-08-11T07:56:55.311Z,100.00
2022-08-11T07:59:22.759Z,100.00
2022-08-11T08:02:10.490Z,100.00
2022-08-11T08:04:36.990Z,100.00
2022-08-11T08:07:04.333Z,100.00
2022-08-11T08:09:33.429Z,100.00
2022-08-11T08:12:00.610Z,100.00
2022-08-11T08:14:28.402Z,99.11
2022-08-11T08:16:55.736Z,99.54
2022-08-11T08:19:22.498Z,98.86
2022-08-11T08:21:49.076Z,97.38
2022-08-11T08:24:15.423Z,97.90
2022-08-11T08:26:42.808Z,93.54
2022-08-11T08:29:18.697Z,95.31
2022-08-11T08:31:47.020Z,95.25
2022-08-11T08:34:13.895Z,92.76
2022-08-11T08:36:42.454Z,88.30
2022-08-11T08:39:08.986Z,87.49
2022-08-11T08:41:36.453Z,84.89
2022-08-11T08:44:35.206Z,86.97
2022-08-11T08:46:56.574Z,86.98
2022-08-11T08:49:25.294Z,84.65
2022-08-11T08:52:01.690Z,83.58
2022-08-11T08:54:41.998Z,78.01
2022-08-11T08:57:09.214Z,81.55
2022-08-11T08:59:47.717Z,84.33
2022-08-11T09:02:17.523Z,77.78
2022-08-11T09:04:44.888Z,81.85
2022-08-11T09:07:12.469Z,80.85
2022-08-11T09:09:42.080Z,78.87
2022-08-11T09:12:09.487Z,78.10
2022-08-11T09:14:37.084Z,78.08
2022-08-11T09:17:03.443Z,76.94
2022-08-11T09:19:31.247Z,80.22
2022-08-11T09:21:57.625Z,84.14
2022-08-11T09:24:26.369Z,80.40
2022-08-11T09:26:53.319Z,79.70
2022-08-11T09:29:20.648Z,76.20
2022-08-11T09:31:47.314Z,77.45
2022-08-11T09:34:14.290Z,77.06
2022-08-11T09:36:43.381Z,74.18
2022-08-11T09:39:10.329Z,76.48
2022-08-11T09:42:00.780Z,69.28
2022-08-11T09:44:24.499Z,70.31
2022-08-11T09:46:51.835Z,70.40
2022-08-11T09:49:20.210Z,69.27
2022-08-11T09:52:01.953Z,69.75
2022-08-11T09:54:28.727Z,66.98
2022-08-11T09:56:55.098Z,67.08
2022-08-11T09:59:22.527Z,58.50
2022-08-11T10:01:51.086Z,64.90
2022-08-11T10:04:19.482Z,63.08
2022-08-11T10:06:54.005Z,61.86
2022-08-11T10:09:24.198Z,57.32
2022-08-11T10:11:55.523Z,56.48
2022-08-11T10:14:32.882Z,61.12
2022-08-11T10:17:03.334Z,59.79
2022-08-11T10:19:31.730Z,60.44
2022-08-11T10:21:58.347Z,59.19
2022-08-11T10:24:26.047Z,59.81
2022-08-11T10:26:53.663Z,57.63
2022-08-11T10:29:21.100Z,56.47
2022-08-11T10:31:57.889Z,58.92
2022-08-11T10:34:26.719Z,58.65
2022-08-11T10:36:56.194Z,57.26
2022-08-11T10:39:23.028Z,57.22
2022-08-11T10:42:06.491Z,54.88
2022-08-11T10:44:37.109Z,52.71
2022-08-11T10:47:04.184Z,53.39
2022-08-11T10:49:30.807Z,51.78
2022-08-11T10:51:58.962Z,53.55
2022-08-11T10:54:27.590Z,51.00
2022-08-11T10:56:55.407Z,50.10
2022-08-11T10:59:22.710Z,49.37
2022-08-11T11:01:50.215Z,48.13
2022-08-11T11:04:17.306Z,49.04
2022-08-11T11:06:48.582Z,49.30
2022-08-11T11:09:16.274Z,49.38
2022-08-11T11:11:45.097Z,49.39
2022-08-11T11:14:15.307Z,48.70
2022-08-11T11:16:43.699Z,47.30
2022-08-11T11:19:11.309Z,48.25
2022-08-11T11:21:38.491Z,45.83
2022-08-11T11:24:14.661Z,45.85
2022-08-11T11:26:43.263Z,48.33
2022-08-11T11:29:25.819Z,47.92
2022-08-11T11:31:56.294Z,46.84
2022-08-11T11:34:36.773Z,45.43
2022-08-11T11:37:19.589Z,46.24
2022-08-11T11:39:46.469Z,45.27
2022-08-11T11:42:14.271Z,45.66
2022-08-11T11:44:44.211Z,44.80
2022-08-11T11:47:11.418Z,42.28
2022-08-11T11:49:38.278Z,43.13
2022-08-11T11:52:06.538Z,43.37
2022-08-11T11:54:34.205Z,45.01
2022-08-11T11:57:01.535Z,44.43
2022-08-11T11:59:28.113Z,43.38
2022-08-11T12:01:56.214Z,43.98
2022-08-11T12:04:22.827Z,41.27
2022-08-11T12:06:49.685Z,42.60
2022-08-11T12:09:16.542Z,41.56
2022-08-11T12:11:43.586Z,41.73
2022-08-11T12:14:11.073Z,42.30
2022-08-11T12:16:38.736Z,41.75
2022-08-11T12:19:07.819Z,42.24
2022-08-11T12:21:35.412Z,39.69
2022-08-11T12:24:04.422Z,41.13
2022-08-11T12:26:31.277Z,40.12
2022-08-11T12:28:58.933Z,40.65
2022-08-11T12:31:25.307Z,41.74
2022-08-11T12:33:51.763Z,41.15
2022-08-11T12:36:20.858Z,40.95
2022-08-11T12:38:51.565Z,40.67
2022-08-11T12:41:19.173Z,39.57
2022-08-11T12:43:57.050Z,38.20
2022-08-11T12:46:25.240Z,37.80
2022-08-11T12:49:02.090Z,39.77
2022-08-11T12:51:32.043Z,38.90
2022-08-11T12:54:21.734Z,37.57
2022-08-11T12:56:50.202Z,37.68
2022-08-11T12:59:16.631Z,36.35
2022-08-11T13:01:43.625Z,37.85
2022-08-11T13:04:09.996Z,39.12
2022-08-11T13:06:37.856Z,36.84
2022-08-11T13:09:05.190Z,37.33
2022-08-11T13:11:56.720Z,37.74
2022-08-11T13:14:19.746Z,38.53
2022-08-11T13:16:46.693Z,36.96
2022-08-11T13:19:13.050Z,38.14
2022-08-11T13:21:40.749Z,38.33
2022-08-11T13:24:07.459Z,38.25
2022-08-11T13:26:47.137Z,37.98
2022-08-11T13:29:19.627Z,38.38
2022-08-11T13:31:46.163Z,38.80
2022-08-11T13:34:12.909Z,39.00
2022-08-11T13:36:41.515Z,38.27
2022-08-11T13:39:08.223Z,36.82
2022-08-11T13:41:35.002Z,37.72
2022-08-11T13:44:02.707Z,37.21
2022-08-11T13:46:29.376Z,38.56
2022-08-11T13:49:00.773Z,37.92
2022-08-11T13:51:31.323Z,38.38
2022-08-11T13:54:04.474Z,37.21
2022-08-11T13:56:31.406Z,37.87
2022-08-11T13:58:58.950Z,38.59
2022-08-11T14:02:20.120Z,38.74
2022-08-11T14:04:30.075Z,38.86
2022-08-11T14:06:59.766Z,38.75
2022-08-11T14:09:28.746Z,38.23
2022-08-11T14:12:20.359Z,39.28
2022-08-11T14:14:48.169Z,38.81
2022-08-11T14:17:47.324Z,38.46
2022-08-11T14:20:35.429Z,38.57
2022-08-11T14:22:51.859Z,39.10
2022-08-11T14:25:19.579Z,38.11
2022-08-11T14:28:31.677Z,38.81
2022-08-11T14:30:32.555Z,37.13
2022-08-11T14:32:59.865Z,38.27
2022-08-11T14:35:27.261Z,38.42
2022-08-11T14:37:53.918Z,38.11
2022-08-11T14:40:21.774Z,36.77
2022-08-11T14:42:48.210Z,38.24
2022-08-11T14:45:16.174Z,38.16
2022-08-11T14:47:43.816Z,38.69
2022-08-11T14:50:12.652Z,37.74
2022-08-11T14:52:43.080Z,38.10
2022-08-11T14:55:10.729Z,37.91
2022-08-11T14:57:56.172Z,37.97
2022-08-11T15:00:23.642Z,38.64
2022-08-11T15:02:50.546Z,38.22
2022-08-11T15:05:17.148Z,38.69
2022-08-11T15:07:43.635Z,38.34
2022-08-11T15:10:13.013Z,38.55
2022-08-11T15:12:41.338Z,37.73
2022-08-11T15:15:08.547Z,38.70
2022-08-11T15:17:43.506Z,38.69
2022-08-11T15:20:12.087Z,39.03
2022-08-11T15:22:38.907Z,39.61
2022-08-11T15:25:05.748Z,39.40
2022-08-11T15:27:33.550Z,39.53
2022-08-11T15:30:02.245Z,38.46
2022-08-11T15:32:29.987Z,39.10
2022-08-11T15:35:00.559Z,39.16
2022-08-11T15:37:30.765Z,37.79
2022-08-11T15:40:01.410Z,38.97
2022-08-11T15:42:28.999Z,37.99
2022-08-11T15:45:05.111Z,38.76
2022-08-11T15:47:37.191Z,37.46
2022-08-11T15:50:11.638Z,37.25
2022-08-11T15:52:43.515Z,38.20
2022-08-11T15:55:10.216Z,37.89
2022-08-11T15:57:39.964Z,37.70
2022-08-11T16:00:07.404Z,36.69
2022-08-11T16:02:35.209Z,35.71
2022-08-11T16:05:05.753Z,36.47
2022-08-11T16:07:39.804Z,37.54
2022-08-11T16:10:09.382Z,37.94
2022-08-11T16:12:37.309Z,37.27
2022-08-11T16:15:05.045Z,36.59
2022-08-11T16:17:33.545Z,37.41
2022-08-11T16:20:02.322Z,37.45
2022-08-11T16:22:30.560Z,36.10
2022-08-11T16:27:04.503Z,36.91
2022-08-11T16:27:46.640Z,37.44
2022-08-11T16:30:13.187Z,37.51
2022-08-11T16:32:40.260Z,36.71
2022-08-11T16:35:09.861Z,37.72
2022-08-11T16:37:37.053Z,36.78
2022-08-11T16:40:04.080Z,35.98
2022-08-11T16:43:08.776Z,36.68
2022-08-11T16:45:17.480Z,37.05
2022-08-11T16:48:02.735Z,36.29
2022-08-11T16:50:32.084Z,36.22
2022-08-11T16:52:58.458Z,36.61
2022-08-11T16:55:45.585Z,36.54
2022-08-11T16:58:12.488Z,36.75
2022-08-11T17:00:39.123Z,36.81
2022-08-11T17:03:06.352Z,36.77
2022-08-11T17:05:35.002Z,36.47
2022-08-11T17:08:07.102Z,37.15
2022-08-11T17:10:51.105Z,37.29
2022-08-11T17:13:22.475Z,36.82
2022-08-11T17:15:50.929Z,37.07
2022-08-11T17:18:19.197Z,37.09
2022-08-11T17:20:46.900Z,37.67
2022-08-11T17:23:13.558Z,37.75
2022-08-11T17:26:03.420Z,38.23
2022-08-11T17:28:27.639Z,38.06
2022-08-11T17:30:54.898Z,37.95
2022-08-11T17:33:22.159Z,37.67
2022-08-11T17:35:50.094Z,38.39
2022-08-11T17:38:17.213Z,38.52
2022-08-11T17:40:45.417Z,38.33
2022-08-11T17:43:11.743Z,38.82
2022-08-11T17:45:39.227Z,38.67
2022-08-11T17:48:06.054Z,37.96
2022-08-11T17:50:32.773Z,38.63
2022-08-11T17:53:01.170Z,38.52
2022-08-11T17:55:51.664Z,38.83
2022-08-11T17:58:16.148Z,39.27
2022-08-11T18:00:42.652Z,39.56
2022-08-11T18:03:09.158Z,40.46
2022-08-11T18:05:37.007Z,40.48
2022-08-11T18:08:06.414Z,41.57
2022-08-11T18:10:39.452Z,41.72
2022-08-11T18:13:06.645Z,41.95
2022-08-11T18:15:33.035Z,42.73
2022-08-11T18:17:59.386Z,42.69
2022-08-11T18:20:26.151Z,42.58
2022-08-11T18:22:55.243Z,42.85
2022-08-11T18:25:24.982Z,42.94
2022-08-11T18:27:53.042Z,43.35
2022-08-11T18:30:19.522Z,43.81
2022-08-11T18:32:49.983Z,43.62
2022-08-11T18:35:18.404Z,44.28
2022-08-11T18:37:46.831Z,44.47
2022-08-11T18:40:16.537Z,44.53
2022-08-11T18:42:44.799Z,45.07
2022-08-11T18:45:13.887Z,45.13
2022-08-11T18:47:41.264Z,45.40
2022-08-11T18:50:09.718Z,45.83
2022-08-11T18:52:41.594Z,45.70
2022-08-11T18:55:10.914Z,45.67
2022-08-11T18:57:53.808Z,46.08
2022-08-11T19:00:22.734Z,45.99
2022-08-11T19:02:50.267Z,46.45
2022-08-11T19:05:18.012Z,46.47
2022-08-11T19:07:45.452Z,47.17
2022-08-11T19:10:13.131Z,46.90
2022-08-11T19:12:41.085Z,46.52
2022-08-11T19:15:08.890Z,46.63
2022-08-11T19:17:43.360Z,46.69
2022-08-11T19:20:13.031Z,46.72
2022-08-11T19:22:39.562Z,47.27
2022-08-11T19:25:07.055Z,47.71
2022-08-11T19:27:34.183Z,47.69
2022-08-11T19:30:11.973Z,48.07
2022-08-11T19:32:41.804Z,49.07
2022-08-11T19:35:08.587Z,49.95
2022-08-11T19:37:35.773Z,49.54
2022-08-11T19:40:11.866Z,50.08
2022-08-11T19:42:38.939Z,50.15
2022-08-11T19:45:05.950Z,50.39
2022-08-11T19:47:33.102Z,50.48
2022-08-11T19:50:00.878Z,51.30
2022-08-11T19:52:28.466Z,51.17
2022-08-11T19:54:55.776Z,51.04
2022-08-11T19:57:23.893Z,51.64
2022-08-11T19:59:50.384Z,51.46
2022-08-11T20:02:16.966Z,51.61
2022-08-11T20:04:43.666Z,51.75
2022-08-11T20:07:14.231Z,52.11
2022-08-11T20:10:06.059Z,51.69
2022-08-11T20:12:31.778Z,51.70
2022-08-11T20:14:59.102Z,52.37
2022-08-11T20:17:26.652Z,51.88
2022-08-11T20:19:55.633Z,52.49
2022-08-11T20:22:24.981Z,52.43
2022-08-11T20:24:52.189Z,52.61
2022-08-11T20:27:24.468Z,52.60
2022-08-11T20:29:52.226Z,52.34
2022-08-11T20:32:18.616Z,52.97
2022-08-11T20:34:45.939Z,53.16
2022-08-11T20:37:13.327Z,53.23
2022-08-11T20:39:42.269Z,53.00
2022-08-11T20:42:09.744Z,53.64
2022-08-11T20:44:37.185Z,53.55
2022-08-11T20:47:04.223Z,53.82
2022-08-11T20:49:40.886Z,53.68
2022-08-11T20:52:18.005Z,54.00
2022-08-11T20:54:45.733Z,54.25
2022-08-11T20:57:16.138Z,54.09
2022-08-11T20:59:43.840Z,54.56
2022-08-11T21:02:16.901Z,54.57
2022-08-11T21:04:54.325Z,55.50
2022-08-11T21:07:24.725Z,55.41
2022-08-11T21:09:58.629Z,55.45
2022-08-11T21:12:28.848Z,56.84
2022-08-11T21:14:55.720Z,56.01
2022-08-11T21:17:27.924Z,56.54
2022-08-11T21:20:06.909Z,56.53
2022-08-11T21:22:35.723Z,56.74
2022-08-11T21:25:04.983Z,57.02
2022-08-11T21:27:33.096Z,57.53
2022-08-11T21:30:00.627Z,57.24
2022-08-11T21:32:27.740Z,57.20
2022-08-11T21:34:55.671Z,57.41
2022-08-11T21:37:22.020Z,57.53
2022-08-11T21:39:49.556Z,58.04
2022-08-11T21:42:18.906Z,58.63
2022-08-11T21:44:45.491Z,58.50
2022-08-11T21:47:12.001Z,58.54
2022-08-11T21:49:39.923Z,59.28
2022-08-11T21:52:06.343Z,59.12
2022-08-11T21:54:32.766Z,59.15
2022-08-11T21:56:59.265Z,59.15
2022-08-11T21:59:34.549Z,59.39
2022-08-11T22:02:01.619Z,59.47
2022-08-11T22:04:30.636Z,59.24
2022-08-11T22:06:57.460Z,60.20
2022-08-11T22:09:23.879Z,59.89
2022-08-11T22:11:50.767Z,60.30
2022-08-11T22:14:38.848Z,60.31
2022-08-11T22:17:08.458Z,60.34
2022-08-11T22:19:35.978Z,60.20
2022-08-11T22:22:06.743Z,60.82
2022-08-11T22:24:33.743Z,60.29
2022-08-11T22:27:00.131Z,61.17
2022-08-11T22:29:50.687Z,61.88
2022-08-11T22:32:15.033Z,61.79
2022-08-11T22:34:53.178Z,62.10
2022-08-11T22:37:27.460Z,61.62
2022-08-11T22:39:59.578Z,62.19
2022-08-11T22:42:33.557Z,62.54
2022-08-11T22:45:00.492Z,63.09
2022-08-11T22:47:38.284Z,63.34
2022-08-11T22:50:08.527Z,63.92
2022-08-11T22:52:35.006Z,64.14
2022-08-11T22:55:01.891Z,64.63
2022-08-11T22:57:28.338Z,65.41
2022-08-11T22:59:55.101Z,64.54
2022-08-11T23:02:21.696Z,65.50
2022-08-11T23:04:53.242Z,66.19
2022-08-11T23:07:49.816Z,65.63
2022-08-11T23:10:07.663Z,66.08
2022-08-11T23:12:34.257Z,66.86
2022-08-11T23:15:00.907Z,66.86
2022-08-11T23:17:27.498Z,67.31
2022-08-11T23:20:10.149Z,67.87
2022-08-11T23:22:49.961Z,68.18
2022-08-11T23:25:17.561Z,67.62
2022-08-11T23:27:44.808Z,69.01
2022-08-11T23:30:11.507Z,69.35
2022-08-11T23:32:39.283Z,69.68
2022-08-11T23:35:40.391Z,69.66
2022-08-11T23:37:54.350Z,70.50
2022-08-11T23:40:20.800Z,70.64
2022-08-11T23:42:49.523Z,71.08
2022-08-11T23:45:20.920Z,71.81
2022-08-11T23:47:50.749Z,71.82
2022-08-11T23:50:19.159Z,70.66
2022-08-11T23:52:45.516Z,72.25
2022-08-11T23:55:11.903Z,70.37
2022-08-11T23:57:38.308Z,71.16
